• Join FlightAware (Why Join?)
  • Login
  • US Flag 
03:50AM EDT


 

Airport Tracker/Info


-or-


 

Live Flight TrackerFlight Track Log ✈ SKW7363 ✈ 24-Aug-2013 ✈ KSLC - KCOD

Flight Track Log - Related Links

Times and Time Zones

All times are in EDT time to prevent confusion due to time zone crossing. See the SKW7363 flight status page for this flight to view local times or setup timezone preferences in your user account.

Time Position Orientation Groundspeed Altitude Reporting Facility
EDT Latitude Longitude Course Direction KTS MPH feet Rate Location/Type
05:34PM 40.7803 -111.9994 50° Northeast 159 183 4,800  Level Salt Lake Center
05:36PM 40.7606 -112.0742 251° West 232 267 7,000 2,100 Climbing Salt Lake Center
05:37PM 40.9859 -112.2333 North  Level FlightAware Approximate
05:37PM 40.8150 -112.1436 316° Northwest 274 315 9,600  Level Salt Lake Center
05:38PM 41.0258 -112.0909 37° Northeast  Level FlightAware Approximate
05:38PM 40.8683 -112.2078 318° Northwest 280 322 11,900  Level Salt Lake Center
05:38PM 40.9444 -112.2333 346° North 320 368 13,300 1,740 Climbing Salt Lake Center
05:39PM 41.1082 -111.9777 50° Northeast  Level FlightAware Approximate
05:39PM 41.0164 -112.1494 41° Northeast 348 400 15,300  Level Salt Lake Center
05:40PM 41.1905 -111.8483 50° Northeast  Level FlightAware Approximate
05:41PM 41.0836 -112.0414 50° Northeast 355 409 17,400  Level Salt Lake Center
05:42PM 41.1750 -111.9003 49° Northeast 363 418 19,800 1,560 Climbing Salt Lake Center
05:43PM 41.2772 -111.8556 18° North 379 436 21,300 1,500 Climbing Salt Lake Center
05:44PM 41.3819 -111.8128 17° North 391 450 22,900 1,200 Climbing Salt Lake Center
05:45PM 41.4881 -111.7692 17° North 402 463 23,800 1,080 Climbing Salt Lake Center
05:46PM 41.5994 -111.7244 17° North 415 478 25,200 1,380 Climbing Salt Lake Center
05:47PM 41.7289 -111.6539 22° Northeast 419 482 26,700 840 Climbing Salt Lake Center
05:48PM 41.8297 -111.5667 33° Northeast 429 494 27,000 120 Climbing Salt Lake Center
05:49PM 41.9361 -111.4711 34° Northeast 456 525 27,000  Level Salt Lake Center
05:50PM 42.0461 -111.3728 34° Northeast 471 542 27,000  Level Salt Lake Center
05:51PM 42.1522 -111.2753 34° Northeast 465 535 27,000  Level Salt Lake Center
05:52PM 42.2567 -111.1814 34° Northeast 455 524 27,000  Level Salt Lake Center
05:53PM 42.3597 -111.0872 34° Northeast 449 517 27,000  Level Salt Lake Center
05:54PM 42.4842 -110.9747 34° Northeast 447 514 27,000  Level Salt Lake Center
05:55PM 42.5786 -110.8872 34° Northeast 444 511 27,000  Level Salt Lake Center
05:56PM 42.6936 -110.7822 34° Northeast 444 511 27,000  Level Salt Lake Center
05:57PM 42.7875 -110.6947 34° Northeast 454 522 27,000  Level Salt Lake Center
05:59PM 42.9017 -110.5869 35° Northeast 450 518 27,000  Level Salt Lake Center
06:00PM 42.9992 -110.4994 33° Northeast 444 511 27,000  Level Salt Lake Center
06:01PM 43.1142 -110.3886 35° Northeast 452 520 27,000  Level Salt Lake Center
06:02PM 43.2122 -110.2986 34° Northeast 446 513 27,000  Level Salt Lake Center
06:03PM 43.3211 -110.1917 36° Northeast 463 533 27,000  Level Salt Lake Center
06:04PM 43.4367 -110.0808 35° Northeast 454 522 27,000 -240 Level Salt Lake Center
06:05PM 43.5267 -109.9958 34° Northeast 448 516 26,600 -1,620 Descending Salt Lake Center
06:06PM 43.6497 -109.8789 35° Northeast 479 551 23,700 -2,460 Descending Salt Lake Center
06:07PM 43.7536 -109.7794 35° Northeast 478 550 21,600 -2,340 Descending Salt Lake Center
06:08PM 43.8631 -109.6722 35° Northeast 427 491 19,000 -2,640 Descending Salt Lake Center
06:09PM 43.9500 -109.5883 35° Northeast 409 471 16,300 -1,560 Descending Salt Lake Center
06:10PM 44.0456 -109.4956 35° Northeast 387 445 15,900 -660 Descending Salt Lake Center
06:11PM 44.1222 -109.4219 35° Northeast 374 430 15,000 -480 Descending Salt Lake Center
06:12PM 44.1983 -109.3472 35° Northeast 346 398 15,000  Level Salt Lake Center
06:13PM 44.2650 -109.2803 36° Northeast 312 359 15,000  Level Salt Lake Center
06:14PM 44.3281 -109.2158 36° Northeast 288 331 15,000 -1,620 Level Salt Lake Center
06:15PM 44.3981 -109.1214 44° Northeast 294 338 11,700 -3,180 Descending Salt Lake Center
06:16PM 44.4528 -109.0292 50° Northeast 303 349 8,600 -1,920 Descending Salt Lake Center
06:17PM 44.5003 -108.9414 53° Northeast 295 339 7,800 -900 Descending Salt Lake Center
06:18PM 44.5408 -108.9383 North 226 260 6,800 -960 Descending Salt Lake Center
06:19PM 44.5531 -108.9992 286° West 189 217 5,900 -900 Descending Salt Lake Center